sensor_id;sensor_type;location;lat;lon;timestamp;P1;durP1;ratioP1;P2;durP2;ratioP2
16743;SDS011;71724;-33.900;151.182;2023-09-30T00:00:30;6.95;;;4.93;;
16743;SDS011;71724;-33.900;151.182;2023-09-30T00:02:59;5.95;;;5.20;;
16743;SDS011;71724;-33.900;151.182;2023-09-30T00:05:26;5.80;;;5.10;;
16743;SDS011;71724;-33.900;151.182;2023-09-30T00:07:54;7.43;;;5.10;;
16743;SDS011;71724;-33.900;151.182;2023-09-30T00:10:21;5.47;;;4.97;;
16743;SDS011;71724;-33.900;151.182;2023-09-30T00:12:50;7.05;;;5.47;;
16743;SDS011;71724;-33.900;151.182;2023-09-30T00:15:19;7.15;;;5.70;;
16743;SDS011;71724;-33.900;151.182;2023-09-30T00:17:49;6.88;;;5.32;;
16743;SDS011;71724;-33.900;151.182;2023-09-30T00:20:17;5.80;;;5.13;;
16743;SDS011;71724;-33.900;151.182;2023-09-30T00:22:44;7.35;;;5.47;;
16743;SDS011;71724;-33.900;151.182;2023-09-30T00:25:12;6.13;;;5.45;;
16743;SDS011;71724;-33.900;151.182;2023-09-30T00:27:39;5.97;;;5.35;;
16743;SDS011;71724;-33.900;151.182;2023-09-30T00:30:07;8.10;;;5.43;;
16743;SDS011;71724;-33.900;151.182;2023-09-30T00:32:35;6.03;;;5.30;;
16743;SDS011;71724;-33.900;151.182;2023-09-30T00:35:05;7.65;;;4.53;;
16743;SDS011;71724;-33.900;151.182;2023-09-30T00:37:39;7.47;;;5.03;;
16743;SDS011;71724;-33.900;151.182;2023-09-30T00:40:07;8.52;;;4.80;;
16743;SDS011;71724;-33.900;151.182;2023-09-30T00:42:39;6.35;;;4.72;;
16743;SDS011;71724;-33.900;151.182;2023-09-30T00:45:07;15.07;;;6.78;;
16743;SDS011;71724;-33.900;151.182;2023-09-30T00:47:36;14.07;;;7.70;;
16743;SDS011;71724;-33.900;151.182;2023-09-30T00:50:05;8.60;;;4.32;;
16743;SDS011;71724;-33.900;151.182;2023-09-30T00:52:34;6.22;;;4.50;;
16743;SDS011;71724;-33.900;151.182;2023-09-30T00:55:02;8.48;;;4.45;;
16743;SDS011;71724;-33.900;151.182;2023-09-30T00:57:32;7.90;;;4.78;;
16743;SDS011;71724;-33.900;151.182;2023-09-30T01:00:00;6.72;;;4.55;;
16743;SDS011;71724;-33.900;151.182;2023-09-30T01:02:31;8.98;;;4.25;;
16743;SDS011;71724;-33.900;151.182;2023-09-30T01:05:00;5.72;;;3.72;;
16743;SDS011;71724;-33.900;151.182;2023-09-30T01:07:29;9.77;;;3.78;;
16743;SDS011;71724;-33.900;151.182;2023-09-30T01:09:56;5.30;;;3.53;;
16743;SDS011;71724;-33.900;151.182;2023-09-30T01:12:23;4.35;;;3.72;;
16743;SDS011;71724;-33.900;151.182;2023-09-30T01:14:56;7.53;;;3.70;;
16743;SDS011;71724;-33.900;151.182;2023-09-30T01:17:28;8.43;;;4.55;;
16743;SDS011;71724;-33.900;151.182;2023-09-30T01:19:57;7.00;;;4.40;;
16743;SDS011;71724;-33.900;151.182;2023-09-30T01:22:31;7.82;;;4.05;;
16743;SDS011;71724;-33.900;151.182;2023-09-30T01:24:59;7.53;;;5.13;;
16743;SDS011;71724;-33.900;151.182;2023-09-30T01:27:27;8.75;;;4.30;;
16743;SDS011;71724;-33.900;151.182;2023-09-30T01:29:55;9.75;;;4.63;;
16743;SDS011;71724;-33.900;151.182;2023-09-30T01:32:23;8.80;;;4.60;;
16743;SDS011;71724;-33.900;151.182;2023-09-30T01:34:51;9.98;;;4.22;;
16743;SDS011;71724;-33.900;151.182;2023-09-30T01:37:18;6.07;;;4.32;;
16743;SDS011;71724;-33.900;151.182;2023-09-30T01:39:45;7.90;;;4.28;;
16743;SDS011;71724;-33.900;151.182;2023-09-30T01:42:15;8.02;;;4.68;;
16743;SDS011;71724;-33.900;151.182;2023-09-30T01:44:43;9.20;;;4.70;;
16743;SDS011;71724;-33.900;151.182;2023-09-30T01:47:10;9.18;;;5.13;;
16743;SDS011;71724;-33.900;151.182;2023-09-30T01:49:38;9.80;;;4.68;;
16743;SDS011;71724;-33.900;151.182;2023-09-30T01:52:08;8.70;;;5.15;;
16743;SDS011;71724;-33.900;151.182;2023-09-30T01:54:36;7.45;;;5.28;;
16743;SDS011;71724;-33.900;151.182;2023-09-30T01:57:03;7.38;;;4.43;;
16743;SDS011;71724;-33.900;151.182;2023-09-30T01:59:33;6.00;;;4.00;;
16743;SDS011;71724;-33.900;151.182;2023-09-30T02:02:00;8.88;;;4.40;;
16743;SDS011;71724;-33.900;151.182;2023-09-30T02:04:28;11.27;;;4.88;;
16743;SDS011;71724;-33.900;151.182;2023-09-30T02:06:56;6.55;;;4.25;;
16743;SDS011;71724;-33.900;151.182;2023-09-30T02:09:24;10.50;;;5.25;;
16743;SDS011;71724;-33.900;151.182;2023-09-30T02:11:51;9.70;;;4.05;;
16743;SDS011;71724;-33.900;151.182;2023-09-30T02:14:21;5.57;;;4.07;;
16743;SDS011;71724;-33.900;151.182;2023-09-30T02:16:50;7.57;;;4.25;;
16743;SDS011;71724;-33.900;151.182;2023-09-30T02:19:18;6.38;;;4.03;;
16743;SDS011;71724;-33.900;151.182;2023-09-30T02:21:47;5.80;;;4.20;;
16743;SDS011;71724;-33.900;151.182;2023-09-30T02:24:14;8.15;;;4.03;;
16743;SDS011;71724;-33.900;151.182;2023-09-30T02:26:42;9.07;;;5.18;;
16743;SDS011;71724;-33.900;151.182;2023-09-30T02:29:09;7.55;;;4.32;;
16743;SDS011;71724;-33.900;151.182;2023-09-30T02:31:38;7.55;;;4.15;;
16743;SDS011;71724;-33.900;151.182;2023-09-30T02:34:06;10.02;;;4.10;;
16743;SDS011;71724;-33.900;151.182;2023-09-30T02:36:34;6.68;;;4.03;;
16743;SDS011;71724;-33.900;151.182;2023-09-30T02:39:05;5.65;;;3.70;;
16743;SDS011;71724;-33.900;151.182;2023-09-30T02:41:34;7.72;;;4.22;;
16743;SDS011;71724;-33.900;151.182;2023-09-30T02:44:03;8.63;;;3.80;;
16743;SDS011;71724;-33.900;151.182;2023-09-30T02:46:31;8.18;;;4.28;;
16743;SDS011;71724;-33.900;151.182;2023-09-30T02:49:00;6.88;;;3.90;;
16743;SDS011;71724;-33.900;151.182;2023-09-30T02:51:28;5.43;;;4.55;;
16743;SDS011;71724;-33.900;151.182;2023-09-30T02:53:56;6.90;;;4.38;;
16743;SDS011;71724;-33.900;151.182;2023-09-30T02:56:23;6.32;;;4.82;;
16743;SDS011;71724;-33.900;151.182;2023-09-30T02:58:52;7.25;;;4.63;;
16743;SDS011;71724;-33.900;151.182;2023-09-30T03:01:21;10.30;;;4.28;;
16743;SDS011;71724;-33.900;151.182;2023-09-30T03:03:48;6.50;;;4.00;;
16743;SDS011;71724;-33.900;151.182;2023-09-30T03:06:16;6.47;;;3.90;;
16743;SDS011;71724;-33.900;151.182;2023-09-30T03:08:44;7.78;;;4.38;;
16743;SDS011;71724;-33.900;151.182;2023-09-30T03:11:12;8.15;;;4.32;;
16743;SDS011;71724;-33.900;151.182;2023-09-30T03:13:39;7.07;;;4.07;;
16743;SDS011;71724;-33.900;151.182;2023-09-30T03:16:08;7.85;;;4.13;;
16743;SDS011;71724;-33.900;151.182;2023-09-30T03:18:36;9.60;;;5.05;;
16743;SDS011;71724;-33.900;151.182;2023-09-30T03:21:12;7.85;;;4.38;;
16743;SDS011;71724;-33.900;151.182;2023-09-30T03:23:41;13.32;;;5.63;;
16743;SDS011;71724;-33.900;151.182;2023-09-30T03:26:09;8.48;;;5.25;;
16743;SDS011;71724;-33.900;151.182;2023-09-30T03:28:37;7.68;;;4.43;;
16743;SDS011;71724;-33.900;151.182;2023-09-30T03:31:04;7.68;;;4.63;;
16743;SDS011;71724;-33.900;151.182;2023-09-30T03:33:34;7.93;;;4.65;;
16743;SDS011;71724;-33.900;151.182;2023-09-30T03:36:01;8.68;;;4.90;;
16743;SDS011;71724;-33.900;151.182;2023-09-30T03:38:29;8.18;;;4.60;;
16743;SDS011;71724;-33.900;151.182;2023-09-30T03:40:58;12.70;;;7.50;;
16743;SDS011;71724;-33.900;151.182;2023-09-30T03:43:26;8.48;;;5.22;;
16743;SDS011;71724;-33.900;151.182;2023-09-30T03:45:54;9.00;;;4.97;;
16743;SDS011;71724;-33.900;151.182;2023-09-30T03:48:23;6.65;;;4.63;;
16743;SDS011;71724;-33.900;151.182;2023-09-30T03:50:51;5.93;;;4.90;;
16743;SDS011;71724;-33.900;151.182;2023-09-30T03:53:19;5.82;;;4.32;;
16743;SDS011;71724;-33.900;151.182;2023-09-30T03:55:52;4.82;;;4.18;;
16743;SDS011;71724;-33.900;151.182;2023-09-30T03:58:22;5.82;;;4.40;;
16743;SDS011;71724;-33.900;151.182;2023-09-30T04:00:49;5.85;;;4.20;;
16743;SDS011;71724;-33.900;151.182;2023-09-30T04:03:17;12.40;;;4.50;;
16743;SDS011;71724;-33.900;151.182;2023-09-30T04:05:45;6.20;;;3.97;;
16743;SDS011;71724;-33.900;151.182;2023-09-30T04:08:16;7.20;;;4.20;;
16743;SDS011;71724;-33.900;151.182;2023-09-30T04:10:43;6.93;;;4.00;;
16743;SDS011;71724;-33.900;151.182;2023-09-30T04:13:10;9.20;;;5.18;;
16743;SDS011;71724;-33.900;151.182;2023-09-30T04:15:38;10.85;;;4.78;;
16743;SDS011;71724;-33.900;151.182;2023-09-30T04:18:05;8.13;;;4.30;;
16743;SDS011;71724;-33.900;151.182;2023-09-30T04:20:33;5.15;;;3.80;;
16743;SDS011;71724;-33.900;151.182;2023-09-30T04:23:00;6.55;;;3.63;;
16743;SDS011;71724;-33.900;151.182;2023-09-30T04:25:28;7.93;;;4.22;;
16743;SDS011;71724;-33.900;151.182;2023-09-30T04:27:55;8.85;;;4.10;;
16743;SDS011;71724;-33.900;151.182;2023-09-30T04:30:23;7.53;;;3.83;;
16743;SDS011;71724;-33.900;151.182;2023-09-30T04:32:51;8.93;;;3.60;;
16743;SDS011;71724;-33.900;151.182;2023-09-30T04:35:20;8.43;;;3.90;;
16743;SDS011;71724;-33.900;151.182;2023-09-30T04:37:47;9.88;;;4.00;;
16743;SDS011;71724;-33.900;151.182;2023-09-30T04:40:15;7.95;;;4.18;;
16743;SDS011;71724;-33.900;151.182;2023-09-30T04:42:45;9.65;;;4.03;;
16743;SDS011;71724;-33.900;151.182;2023-09-30T04:45:13;10.45;;;4.07;;
16743;SDS011;71724;-33.900;151.182;2023-09-30T04:47:49;6.55;;;3.65;;
16743;SDS011;71724;-33.900;151.182;2023-09-30T04:50:18;6.13;;;3.50;;
16743;SDS011;71724;-33.900;151.182;2023-09-30T04:52:47;10.27;;;4.07;;
16743;SDS011;71724;-33.900;151.182;2023-09-30T04:55:15;10.35;;;3.80;;
16743;SDS011;71724;-33.900;151.182;2023-09-30T04:57:44;5.88;;;3.55;;
16743;SDS011;71724;-33.900;151.182;2023-09-30T05:00:16;9.30;;;4.43;;
16743;SDS011;71724;-33.900;151.182;2023-09-30T05:02:51;12.63;;;4.50;;
16743;SDS011;71724;-33.900;151.182;2023-09-30T05:05:19;7.85;;;4.22;;
16743;SDS011;71724;-33.900;151.182;2023-09-30T05:07:51;5.93;;;3.60;;
16743;SDS011;71724;-33.900;151.182;2023-09-30T05:10:18;10.18;;;4.10;;
16743;SDS011;71724;-33.900;151.182;2023-09-30T05:12:47;9.43;;;4.47;;
16743;SDS011;71724;-33.900;151.182;2023-09-30T05:15:15;7.97;;;3.60;;
16743;SDS011;71724;-33.900;151.182;2023-09-30T05:17:45;11.10;;;3.83;;
16743;SDS011;71724;-33.900;151.182;2023-09-30T05:20:14;9.52;;;4.32;;
16743;SDS011;71724;-33.900;151.182;2023-09-30T05:22:45;9.60;;;3.63;;
16743;SDS011;71724;-33.900;151.182;2023-09-30T05:25:14;9.57;;;3.50;;
16743;SDS011;71724;-33.900;151.182;2023-09-30T05:27:43;10.65;;;3.88;;
16743;SDS011;71724;-33.900;151.182;2023-09-30T05:30:13;8.45;;;3.50;;
16743;SDS011;71724;-33.900;151.182;2023-09-30T05:32:41;8.70;;;3.90;;
16743;SDS011;71724;-33.900;151.182;2023-09-30T05:35:13;5.78;;;3.33;;
16743;SDS011;71724;-33.900;151.182;2023-09-30T05:37:43;9.25;;;3.30;;
16743;SDS011;71724;-33.900;151.182;2023-09-30T05:40:14;10.10;;;4.25;;
16743;SDS011;71724;-33.900;151.182;2023-09-30T05:42:49;12.18;;;4.70;;
16743;SDS011;71724;-33.900;151.182;2023-09-30T05:45:22;12.18;;;4.00;;
16743;SDS011;71724;-33.900;151.182;2023-09-30T05:47:53;7.45;;;3.88;;
16743;SDS011;71724;-33.900;151.182;2023-09-30T05:50:23;7.53;;;4.18;;
16743;SDS011;71724;-33.900;151.182;2023-09-30T05:52:54;8.18;;;3.63;;
16743;SDS011;71724;-33.900;151.182;2023-09-30T05:55:23;9.65;;;3.30;;
16743;SDS011;71724;-33.900;151.182;2023-09-30T05:57:54;9.00;;;3.58;;
16743;SDS011;71724;-33.900;151.182;2023-09-30T06:00:22;9.20;;;3.70;;
16743;SDS011;71724;-33.900;151.182;2023-09-30T06:02:50;9.13;;;3.47;;
16743;SDS011;71724;-33.900;151.182;2023-09-30T06:05:17;8.20;;;3.50;;
16743;SDS011;71724;-33.900;151.182;2023-09-30T06:07:45;10.60;;;3.58;;
16743;SDS011;71724;-33.900;151.182;2023-09-30T06:10:13;12.13;;;3.65;;
16743;SDS011;71724;-33.900;151.182;2023-09-30T06:12:47;10.15;;;3.42;;
16743;SDS011;71724;-33.900;151.182;2023-09-30T06:15:15;8.73;;;3.33;;
16743;SDS011;71724;-33.900;151.182;2023-09-30T06:17:48;8.05;;;3.60;;
16743;SDS011;71724;-33.900;151.182;2023-09-30T06:20:19;10.90;;;3.58;;
16743;SDS011;71724;-33.900;151.182;2023-09-30T06:22:48;9.23;;;3.35;;
16743;SDS011;71724;-33.900;151.182;2023-09-30T06:25:16;14.82;;;3.70;;
16743;SDS011;71724;-33.900;151.182;2023-09-30T06:27:47;9.13;;;3.58;;
16743;SDS011;71724;-33.900;151.182;2023-09-30T06:30:16;9.23;;;3.25;;
16743;SDS011;71724;-33.900;151.182;2023-09-30T06:32:47;8.68;;;3.40;;
16743;SDS011;71724;-33.900;151.182;2023-09-30T06:35:15;11.77;;;3.80;;
16743;SDS011;71724;-33.900;151.182;2023-09-30T06:37:42;9.95;;;4.95;;
16743;SDS011;71724;-33.900;151.182;2023-09-30T06:40:11;7.40;;;4.40;;
16743;SDS011;71724;-33.900;151.182;2023-09-30T06:42:38;11.63;;;4.53;;
16743;SDS011;71724;-33.900;151.182;2023-09-30T06:45:07;12.05;;;4.68;;
16743;SDS011;71724;-33.900;151.182;2023-09-30T06:47:36;12.15;;;4.25;;
16743;SDS011;71724;-33.900;151.182;2023-09-30T06:50:09;10.38;;;3.80;;
16743;SDS011;71724;-33.900;151.182;2023-09-30T06:52:42;7.45;;;3.28;;
16743;SDS011;71724;-33.900;151.182;2023-09-30T06:55:14;7.97;;;3.25;;
16743;SDS011;71724;-33.900;151.182;2023-09-30T06:57:45;9.43;;;3.70;;
16743;SDS011;71724;-33.900;151.182;2023-09-30T07:00:13;10.52;;;3.78;;
16743;SDS011;71724;-33.900;151.182;2023-09-30T07:02:42;11.02;;;4.07;;
16743;SDS011;71724;-33.900;151.182;2023-09-30T07:05:10;8.68;;;4.15;;
16743;SDS011;71724;-33.900;151.182;2023-09-30T07:07:39;10.50;;;4.38;;
16743;SDS011;71724;-33.900;151.182;2023-09-30T07:10:19;8.32;;;3.67;;
16743;SDS011;71724;-33.900;151.182;2023-09-30T07:12:46;10.07;;;3.60;;
16743;SDS011;71724;-33.900;151.182;2023-09-30T07:15:14;8.95;;;3.67;;
16743;SDS011;71724;-33.900;151.182;2023-09-30T07:17:41;10.95;;;3.42;;
16743;SDS011;71724;-33.900;151.182;2023-09-30T07:20:12;12.80;;;3.75;;
16743;SDS011;71724;-33.900;151.182;2023-09-30T07:22:39;11.68;;;3.67;;
16743;SDS011;71724;-33.900;151.182;2023-09-30T07:25:07;8.57;;;3.40;;
16743;SDS011;71724;-33.900;151.182;2023-09-30T07:27:38;9.70;;;3.92;;
16743;SDS011;71724;-33.900;151.182;2023-09-30T07:30:15;6.55;;;2.65;;
16743;SDS011;71724;-33.900;151.182;2023-09-30T07:32:43;12.38;;;3.70;;
16743;SDS011;71724;-33.900;151.182;2023-09-30T07:35:14;12.73;;;3.72;;
16743;SDS011;71724;-33.900;151.182;2023-09-30T07:37:41;9.00;;;3.30;;
16743;SDS011;71724;-33.900;151.182;2023-09-30T07:40:09;9.43;;;3.30;;
16743;SDS011;71724;-33.900;151.182;2023-09-30T07:42:38;8.60;;;3.10;;
16743;SDS011;71724;-33.900;151.182;2023-09-30T07:45:05;9.40;;;3.63;;
16743;SDS011;71724;-33.900;151.182;2023-09-30T07:47:33;9.77;;;3.85;;
16743;SDS011;71724;-33.900;151.182;2023-09-30T07:50:02;11.05;;;4.13;;
16743;SDS011;71724;-33.900;151.182;2023-09-30T07:52:35;10.60;;;3.75;;
16743;SDS011;71724;-33.900;151.182;2023-09-30T07:55:05;9.23;;;4.20;;
16743;SDS011;71724;-33.900;151.182;2023-09-30T07:57:32;11.63;;;4.38;;
16743;SDS011;71724;-33.900;151.182;2023-09-30T07:59:59;9.73;;;4.63;;
16743;SDS011;71724;-33.900;151.182;2023-09-30T08:02:28;9.88;;;4.00;;
16743;SDS011;71724;-33.900;151.182;2023-09-30T08:04:59;9.40;;;3.70;;
16743;SDS011;71724;-33.900;151.182;2023-09-30T08:07:26;13.40;;;4.60;;
16743;SDS011;71724;-33.900;151.182;2023-09-30T08:09:54;8.63;;;3.78;;
16743;SDS011;71724;-33.900;151.182;2023-09-30T08:12:21;13.65;;;3.78;;
16743;SDS011;71724;-33.900;151.182;2023-09-30T08:14:49;10.40;;;3.88;;
16743;SDS011;71724;-33.900;151.182;2023-09-30T08:17:19;9.63;;;3.83;;
16743;SDS011;71724;-33.900;151.182;2023-09-30T08:19:50;7.50;;;3.20;;
16743;SDS011;71724;-33.900;151.182;2023-09-30T08:22:18;9.88;;;3.80;;
16743;SDS011;71724;-33.900;151.182;2023-09-30T08:24:46;10.13;;;3.88;;
16743;SDS011;71724;-33.900;151.182;2023-09-30T08:27:14;11.25;;;3.78;;
16743;SDS011;71724;-33.900;151.182;2023-09-30T08:29:41;8.05;;;3.70;;
16743;SDS011;71724;-33.900;151.182;2023-09-30T08:32:09;12.43;;;3.53;;
16743;SDS011;71724;-33.900;151.182;2023-09-30T08:34:37;7.57;;;3.58;;
16743;SDS011;71724;-33.900;151.182;2023-09-30T08:37:04;10.50;;;4.40;;
16743;SDS011;71724;-33.900;151.182;2023-09-30T08:39:32;13.90;;;4.68;;
16743;SDS011;71724;-33.900;151.182;2023-09-30T08:42:03;9.23;;;3.83;;
16743;SDS011;71724;-33.900;151.182;2023-09-30T08:44:37;8.27;;;3.90;;
16743;SDS011;71724;-33.900;151.182;2023-09-30T08:47:08;11.27;;;3.60;;
16743;SDS011;71724;-33.900;151.182;2023-09-30T08:49:39;10.68;;;3.42;;
16743;SDS011;71724;-33.900;151.182;2023-09-30T08:52:09;8.98;;;2.90;;
16743;SDS011;71724;-33.900;151.182;2023-09-30T08:54:39;11.20;;;3.58;;
16743;SDS011;71724;-33.900;151.182;2023-09-30T08:57:10;9.75;;;3.35;;
16743;SDS011;71724;-33.900;151.182;2023-09-30T08:59:40;12.25;;;3.25;;
16743;SDS011;71724;-33.900;151.182;2023-09-30T09:02:09;9.82;;;3.42;;
16743;SDS011;71724;-33.900;151.182;2023-09-30T09:04:37;9.05;;;3.60;;
16743;SDS011;71724;-33.900;151.182;2023-09-30T09:07:04;9.05;;;3.45;;
16743;SDS011;71724;-33.900;151.182;2023-09-30T09:09:32;8.55;;;3.30;;
16743;SDS011;71724;-33.900;151.182;2023-09-30T09:11:59;8.90;;;3.58;;
16743;SDS011;71724;-33.900;151.182;2023-09-30T09:17:12;8.02;;;3.08;;
16743;SDS011;71724;-33.900;151.182;2023-09-30T09:19:40;9.40;;;3.47;;
16743;SDS011;71724;-33.900;151.182;2023-09-30T09:22:08;7.10;;;3.15;;
16743;SDS011;71724;-33.900;151.182;2023-09-30T09:24:37;11.35;;;3.55;;
16743;SDS011;71724;-33.900;151.182;2023-09-30T09:27:05;9.23;;;3.50;;
16743;SDS011;71724;-33.900;151.182;2023-09-30T09:29:37;7.57;;;3.28;;
16743;SDS011;71724;-33.900;151.182;2023-09-30T09:34:43;8.32;;;3.08;;
16743;SDS011;71724;-33.900;151.182;2023-09-30T09:37:19;7.28;;;3.13;;
16743;SDS011;71724;-33.900;151.182;2023-09-30T09:44:55;9.70;;;3.60;;
16743;SDS011;71724;-33.900;151.182;2023-09-30T09:47:26;8.77;;;3.72;;
16743;SDS011;71724;-33.900;151.182;2023-09-30T09:49:55;10.50;;;4.35;;
16743;SDS011;71724;-33.900;151.182;2023-09-30T09:52:24;11.88;;;4.65;;
16743;SDS011;71724;-33.900;151.182;2023-09-30T09:54:52;11.68;;;3.83;;
16743;SDS011;71724;-33.900;151.182;2023-09-30T09:57:19;11.65;;;3.97;;
16743;SDS011;71724;-33.900;151.182;2023-09-30T09:59:48;7.72;;;3.63;;
16743;SDS011;71724;-33.900;151.182;2023-09-30T10:02:16;7.10;;;3.35;;
16743;SDS011;71724;-33.900;151.182;2023-09-30T10:04:45;9.65;;;3.63;;
16743;SDS011;71724;-33.900;151.182;2023-09-30T10:07:24;8.00;;;3.10;;
16743;SDS011;71724;-33.900;151.182;2023-09-30T10:09:55;10.45;;;3.53;;
16743;SDS011;71724;-33.900;151.182;2023-09-30T10:12:27;10.93;;;4.10;;
16743;SDS011;71724;-33.900;151.182;2023-09-30T10:15:32;10.93;;;4.05;;
16743;SDS011;71724;-33.900;151.182;2023-09-30T10:20:29;14.80;;;4.43;;
16743;SDS011;71724;-33.900;151.182;2023-09-30T10:25:47;12.07;;;4.17;;
16743;SDS011;71724;-33.900;151.182;2023-09-30T10:31:22;9.93;;;4.45;;
16743;SDS011;71724;-33.900;151.182;2023-09-30T10:36:32;22.38;;;5.90;;
16743;SDS011;71724;-33.900;151.182;2023-09-30T10:39:17;14.32;;;5.15;;
16743;SDS011;71724;-33.900;151.182;2023-09-30T10:51:15;10.13;;;4.68;;
16743;SDS011;71724;-33.900;151.182;2023-09-30T10:53:52;16.00;;;5.13;;
16743;SDS011;71724;-33.900;151.182;2023-09-30T10:56:32;11.13;;;4.50;;
16743;SDS011;71724;-33.900;151.182;2023-09-30T10:59:02;17.88;;;5.10;;
16743;SDS011;71724;-33.900;151.182;2023-09-30T11:01:33;15.50;;;4.80;;
16743;SDS011;71724;-33.900;151.182;2023-09-30T11:04:02;11.88;;;4.65;;
16743;SDS011;71724;-33.900;151.182;2023-09-30T11:06:31;12.90;;;4.97;;
16743;SDS011;71724;-33.900;151.182;2023-09-30T11:09:00;17.05;;;6.53;;
16743;SDS011;71724;-33.900;151.182;2023-09-30T11:11:38;17.58;;;6.55;;
16743;SDS011;71724;-33.900;151.182;2023-09-30T11:14:25;18.15;;;6.20;;
16743;SDS011;71724;-33.900;151.182;2023-09-30T11:17:00;13.68;;;5.63;;
16743;SDS011;71724;-33.900;151.182;2023-09-30T11:19:47;16.70;;;6.05;;
16743;SDS011;71724;-33.900;151.182;2023-09-30T11:22:20;21.52;;;6.43;;
16743;SDS011;71724;-33.900;151.182;2023-09-30T11:24:48;15.85;;;5.65;;
16743;SDS011;71724;-33.900;151.182;2023-09-30T11:27:24;18.58;;;6.55;;
16743;SDS011;71724;-33.900;151.182;2023-09-30T11:29:56;14.50;;;5.90;;
16743;SDS011;71724;-33.900;151.182;2023-09-30T11:32:25;16.20;;;5.90;;
16743;SDS011;71724;-33.900;151.182;2023-09-30T11:34:54;17.48;;;7.13;;
16743;SDS011;71724;-33.900;151.182;2023-09-30T11:37:22;16.55;;;7.05;;
16743;SDS011;71724;-33.900;151.182;2023-09-30T11:39:49;14.80;;;5.68;;
16743;SDS011;71724;-33.900;151.182;2023-09-30T11:42:17;18.15;;;6.95;;
16743;SDS011;71724;-33.900;151.182;2023-09-30T11:44:47;14.80;;;5.88;;
16743;SDS011;71724;-33.900;151.182;2023-09-30T11:47:15;14.25;;;6.05;;
16743;SDS011;71724;-33.900;151.182;2023-09-30T11:49:54;18.98;;;7.18;;
16743;SDS011;71724;-33.900;151.182;2023-09-30T11:52:26;16.02;;;6.65;;
16743;SDS011;71724;-33.900;151.182;2023-09-30T11:54:53;18.23;;;7.70;;
16743;SDS011;71724;-33.900;151.182;2023-09-30T11:57:21;22.73;;;8.75;;
16743;SDS011;71724;-33.900;151.182;2023-09-30T11:59:49;20.17;;;8.15;;
16743;SDS011;71724;-33.900;151.182;2023-09-30T12:02:16;17.00;;;7.80;;
16743;SDS011;71724;-33.900;151.182;2023-09-30T12:04:45;16.48;;;7.22;;
16743;SDS011;71724;-33.900;151.182;2023-09-30T12:07:15;20.90;;;7.60;;
16743;SDS011;71724;-33.900;151.182;2023-09-30T12:09:42;15.45;;;6.60;;
16743;SDS011;71724;-33.900;151.182;2023-09-30T12:12:10;17.42;;;6.97;;
16743;SDS011;71724;-33.900;151.182;2023-09-30T12:14:41;15.25;;;7.28;;
16743;SDS011;71724;-33.900;151.182;2023-09-30T12:17:08;27.33;;;8.27;;
16743;SDS011;71724;-33.900;151.182;2023-09-30T12:19:40;18.52;;;7.85;;
16743;SDS011;71724;-33.900;151.182;2023-09-30T12:22:07;19.65;;;7.53;;
16743;SDS011;71724;-33.900;151.182;2023-09-30T12:24:35;20.85;;;8.45;;
16743;SDS011;71724;-33.900;151.182;2023-09-30T12:27:03;19.50;;;8.63;;
16743;SDS011;71724;-33.900;151.182;2023-09-30T12:29:30;16.88;;;7.47;;
16743;SDS011;71724;-33.900;151.182;2023-09-30T12:31:57;16.20;;;7.35;;
16743;SDS011;71724;-33.900;151.182;2023-09-30T12:34:26;19.17;;;8.15;;
16743;SDS011;71724;-33.900;151.182;2023-09-30T12:36:56;21.95;;;8.00;;
16743;SDS011;71724;-33.900;151.182;2023-09-30T12:39:23;20.45;;;8.40;;
16743;SDS011;71724;-33.900;151.182;2023-09-30T12:41:51;17.05;;;7.68;;
16743;SDS011;71724;-33.900;151.182;2023-09-30T12:44:19;21.63;;;9.88;;
16743;SDS011;71724;-33.900;151.182;2023-09-30T12:46:48;16.10;;;8.25;;
16743;SDS011;71724;-33.900;151.182;2023-09-30T12:49:15;18.17;;;7.88;;
16743;SDS011;71724;-33.900;151.182;2023-09-30T12:51:44;16.23;;;8.30;;
16743;SDS011;71724;-33.900;151.182;2023-09-30T12:54:11;21.38;;;9.40;;
16743;SDS011;71724;-33.900;151.182;2023-09-30T12:56:40;18.83;;;9.07;;
16743;SDS011;71724;-33.900;151.182;2023-09-30T12:59:07;15.93;;;8.27;;
16743;SDS011;71724;-33.900;151.182;2023-09-30T13:01:35;21.48;;;9.75;;
16743;SDS011;71724;-33.900;151.182;2023-09-30T13:04:02;22.80;;;10.15;;
16743;SDS011;71724;-33.900;151.182;2023-09-30T13:06:33;19.90;;;9.70;;
16743;SDS011;71724;-33.900;151.182;2023-09-30T13:09:01;25.45;;;10.43;;
16743;SDS011;71724;-33.900;151.182;2023-09-30T13:11:34;26.67;;;9.70;;
16743;SDS011;71724;-33.900;151.182;2023-09-30T13:14:01;16.98;;;8.82;;
16743;SDS011;71724;-33.900;151.182;2023-09-30T13:16:28;27.35;;;10.30;;
16743;SDS011;71724;-33.900;151.182;2023-09-30T13:18:56;20.73;;;9.48;;
16743;SDS011;71724;-33.900;151.182;2023-09-30T13:21:24;15.45;;;8.20;;
16743;SDS011;71724;-33.900;151.182;2023-09-30T13:23:53;17.58;;;8.30;;
16743;SDS011;71724;-33.900;151.182;2023-09-30T13:26:20;21.23;;;9.35;;
16743;SDS011;71724;-33.900;151.182;2023-09-30T13:28:48;26.80;;;10.35;;
16743;SDS011;71724;-33.900;151.182;2023-09-30T13:31:15;21.00;;;8.77;;
16743;SDS011;71724;-33.900;151.182;2023-09-30T13:33:42;20.55;;;8.45;;
16743;SDS011;71724;-33.900;151.182;2023-09-30T13:36:10;22.15;;;8.15;;
16743;SDS011;71724;-33.900;151.182;2023-09-30T13:38:37;19.85;;;8.05;;
16743;SDS011;71724;-33.900;151.182;2023-09-30T13:41:04;21.20;;;8.15;;
16743;SDS011;71724;-33.900;151.182;2023-09-30T13:43:32;18.85;;;7.97;;
16743;SDS011;71724;-33.900;151.182;2023-09-30T13:46:02;22.02;;;7.65;;
16743;SDS011;71724;-33.900;151.182;2023-09-30T13:48:32;22.23;;;8.40;;
16743;SDS011;71724;-33.900;151.182;2023-09-30T13:51:07;12.65;;;6.13;;
16743;SDS011;71724;-33.900;151.182;2023-09-30T13:53:37;19.00;;;7.53;;
16743;SDS011;71724;-33.900;151.182;2023-09-30T13:56:06;18.83;;;6.50;;
16743;SDS011;71724;-33.900;151.182;2023-09-30T13:58:34;16.40;;;6.30;;
16743;SDS011;71724;-33.900;151.182;2023-09-30T14:01:01;15.38;;;6.10;;
16743;SDS011;71724;-33.900;151.182;2023-09-30T14:03:29;21.13;;;6.53;;
16743;SDS011;71724;-33.900;151.182;2023-09-30T14:05:56;14.73;;;5.85;;
16743;SDS011;71724;-33.900;151.182;2023-09-30T14:08:24;13.32;;;5.97;;
16743;SDS011;71724;-33.900;151.182;2023-09-30T14:10:55;14.57;;;6.10;;
16743;SDS011;71724;-33.900;151.182;2023-09-30T14:13:22;14.77;;;5.93;;
16743;SDS011;71724;-33.900;151.182;2023-09-30T14:15:50;20.58;;;6.60;;
16743;SDS011;71724;-33.900;151.182;2023-09-30T14:18:18;22.83;;;7.20;;
16743;SDS011;71724;-33.900;151.182;2023-09-30T14:20:46;18.73;;;6.05;;
16743;SDS011;71724;-33.900;151.182;2023-09-30T14:23:13;22.55;;;6.47;;
16743;SDS011;71724;-33.900;151.182;2023-09-30T14:25:41;19.55;;;6.50;;
16743;SDS011;71724;-33.900;151.182;2023-09-30T14:28:08;22.25;;;6.78;;
16743;SDS011;71724;-33.900;151.182;2023-09-30T14:30:36;13.35;;;5.57;;
16743;SDS011;71724;-33.900;151.182;2023-09-30T14:33:04;22.02;;;6.13;;
16743;SDS011;71724;-33.900;151.182;2023-09-30T14:35:34;15.40;;;6.18;;
16743;SDS011;71724;-33.900;151.182;2023-09-30T14:38:04;15.27;;;5.88;;
16743;SDS011;71724;-33.900;151.182;2023-09-30T14:40:36;14.25;;;6.65;;
16743;SDS011;71724;-33.900;151.182;2023-09-30T14:43:07;24.50;;;7.97;;
16743;SDS011;71724;-33.900;151.182;2023-09-30T14:45:39;20.75;;;6.85;;